Altoona, WI (54720)

8:00 PM CST on February 08, 2016 (GMT -0600)
Memorial High area | | Change Station
CLOSE
Current Station
Personal Weather Station
Location: Eau Claire, WI
Elevation: 880 ft
Nearby Weather Stations

Elev 880 ft 44.80 °N, 91.48 °W | Updated 1 second ago

Light Snow
Light Snow
14.2 °F
Feels Like 14 °F
N
0.0
Wind Variable Wind from North
Gusts 0.0 mph

Today
High -- | Low -- °F
--% Chance of Precip.
Yesterday
High -- | Low -- °F
Precip. -- in
Pressure 29.95 in
Visibility 3.0 miles
Clouds Overcast 3200 ft
Windchill 14 °F
Dew Point 10 °F
Humidity 83%
Rainfall 0.00 in
Snow Depth Not available.
7:16 AM 5:23 PM
New Moon, 0% visible
METAR KEAU 090156Z 33011G19KT 3SM -SN OVC032 M11/M14 A2989 RMK AO2 SNB08 SLP140 P0000 T11061144
Pressure 29.95 in
Visibility 3.0 miles
Clouds Overcast 3200 ft
Windchill 14 °F
Dew Point 10 °F
Humidity 83%
Rainfall 0.00 in
Snow Depth Not available.
7:16 AM 5:23 PM
New Moon, 0% visible
METAR KEAU 090156Z 33011G19KT 3SM -SN OVC032 M11/M14 A2989 RMK AO2 SNB08 SLP140 P0000 T11061144

10-Day Weather Forecast

Almanac

Astronomy

Feb. 08, 2016 Rise Set
Actual Time
Civil Twilight
Nautical Twilight
Astronomical Twilight
Moon
Length of Visible Light
Length of Day
Tomorrow will be .
, % of the Moon is Illuminated

Today's Extremes

State Highs State Lows

Community

WunderPhotos

Upload Photos

1,891,527 photos uploaded!

WunderBlog® & News

Nearby

Air Quality

  Air Quality AQ Index Pollutant
Not available.

Snow Depth

Station Depth Elevation

Earthquake Activity

City Distance Mag. Time & Date
Minimum magnitude displayed is 2.5.

Coastal Water Temperatures

Place Temperature

Stations

Nearby Weather Stations

Station Location Temp. Windchill Dew Point Humidity Wind Precip. Elev Updated Type
                   

Watches & Warnings

There are currently no watches in effect.